createdAt,value
2018-07-21T00:01:29.899Z,23.50
2018-07-21T00:03:57.022Z,23.50
2018-07-21T00:06:24.140Z,23.40
2018-07-21T00:08:51.234Z,23.30
2018-07-21T00:11:18.364Z,23.40
2018-07-21T00:13:45.507Z,23.30
2018-07-21T00:16:12.656Z,23.20
2018-07-21T00:18:39.903Z,23.30
2018-07-21T00:21:07.110Z,23.20
2018-07-21T00:23:34.307Z,23.20
2018-07-21T00:26:01.503Z,23.10
2018-07-21T00:28:28.661Z,23.20
2018-07-21T00:30:55.794Z,23.20
2018-07-21T00:33:22.899Z,23.10
2018-07-21T00:35:50.026Z,23.00
2018-07-21T00:38:17.136Z,22.90
2018-07-21T00:40:44.278Z,22.90
2018-07-21T00:43:11.403Z,22.90
2018-07-21T00:45:38.606Z,22.90
2018-07-21T00:48:06.071Z,22.90
2018-07-21T00:50:33.272Z,22.90
2018-07-21T00:53:00.398Z,22.90
2018-07-21T00:55:27.565Z,22.80
2018-07-21T00:57:54.665Z,22.80
2018-07-21T01:00:21.813Z,22.80
2018-07-21T01:02:49.000Z,22.80
2018-07-21T01:05:16.558Z,22.60
2018-07-21T01:07:43.711Z,22.50
2018-07-21T01:10:10.843Z,22.50
2018-07-21T01:12:38.063Z,22.40
2018-07-21T01:15:05.760Z,22.60
2018-07-21T01:17:32.996Z,22.50
2018-07-21T01:20:00.117Z,22.40
2018-07-21T01:22:27.259Z,22.40
2018-07-21T01:24:54.358Z,22.40
2018-07-21T01:27:21.610Z,22.40
2018-07-21T01:29:48.715Z,22.40
2018-07-21T01:32:15.822Z,22.40
2018-07-21T01:37:10.066Z,22.30
2018-07-21T01:39:37.253Z,22.30
2018-07-21T01:42:04.493Z,22.30
2018-07-21T01:44:31.641Z,22.40
2018-07-21T01:46:58.748Z,22.40
2018-07-21T01:49:25.866Z,22.30
2018-07-21T01:51:53.073Z,22.40
2018-07-21T01:54:20.214Z,22.40
2018-07-21T01:56:47.351Z,22.40
2018-07-21T01:59:14.458Z,22.40
2018-07-21T02:01:41.557Z,22.50
2018-07-21T02:04:08.758Z,22.40
2018-07-21T02:06:35.930Z,22.30
2018-07-21T02:09:05.054Z,22.20
2018-07-21T02:11:32.605Z,22.20
2018-07-21T02:13:59.724Z,22.10
2018-07-21T02:16:26.934Z,22.20
2018-07-21T02:18:54.057Z,22.10
2018-07-21T02:21:21.185Z,22.10
2018-07-21T02:23:48.384Z,22.10
2018-07-21T02:26:15.440Z,22.10
2018-07-21T02:28:42.561Z,22.10
2018-07-21T02:31:09.669Z,22.00
2018-07-21T02:33:36.910Z,22.00
2018-07-21T02:36:04.227Z,21.90
2018-07-21T02:38:31.447Z,21.80
2018-07-21T02:40:58.566Z,21.80
2018-07-21T02:43:25.713Z,21.70
2018-07-21T02:45:52.842Z,21.70
2018-07-21T02:48:19.945Z,21.70
2018-07-21T02:50:47.082Z,21.70
2018-07-21T02:53:14.188Z,21.70
2018-07-21T02:55:41.329Z,21.70
2018-07-21T02:58:08.515Z,21.50
2018-07-21T03:00:35.805Z,21.60
2018-07-21T03:03:03.070Z,21.60
2018-07-21T03:05:37.113Z,21.60
2018-07-21T03:08:05.065Z,21.80
2018-07-21T03:10:32.251Z,22.00
2018-07-21T03:12:59.514Z,22.10
2018-07-21T03:15:26.726Z,22.40
2018-07-21T03:17:54.634Z,22.40
2018-07-21T03:20:21.751Z,22.40
2018-07-21T03:22:48.893Z,22.40
2018-07-21T03:25:15.989Z,22.40
2018-07-21T03:27:43.101Z,22.40
2018-07-21T03:30:10.213Z,22.40
2018-07-21T03:32:37.346Z,22.30
2018-07-21T03:35:04.521Z,22.30
2018-07-21T03:37:31.703Z,22.30
2018-07-21T03:39:58.869Z,22.20
2018-07-21T03:42:26.042Z,22.20
2018-07-21T03:44:53.154Z,22.20
2018-07-21T03:47:20.279Z,22.10
2018-07-21T03:49:47.398Z,22.10
2018-07-21T03:52:14.755Z,22.10
2018-07-21T03:54:41.867Z,22.00
2018-07-21T03:57:09.285Z,22.00
2018-07-21T03:59:36.405Z,21.90
2018-07-21T04:02:03.714Z,22.00
2018-07-21T04:04:30.919Z,22.00
2018-07-21T04:06:58.102Z,22.00
2018-07-21T04:09:25.271Z,22.00
2018-07-21T04:11:52.397Z,22.20
2018-07-21T04:14:19.561Z,22.20
2018-07-21T04:16:46.674Z,22.20
2018-07-21T04:19:13.812Z,22.10
2018-07-21T04:21:40.914Z,22.10
2018-07-21T04:24:08.081Z,22.00
2018-07-21T04:26:35.172Z,22.10
2018-07-21T04:29:02.574Z,22.10
2018-07-21T04:31:29.844Z,22.10
2018-07-21T04:33:57.063Z,22.10
2018-07-21T04:36:24.953Z,22.10
2018-07-21T04:38:52.230Z,22.00
2018-07-21T04:41:19.366Z,22.10
2018-07-21T04:43:46.484Z,21.90
2018-07-21T04:46:13.606Z,21.90
2018-07-21T04:48:40.730Z,21.90
2018-07-21T04:51:07.900Z,21.80
2018-07-21T04:53:35.038Z,21.90
2018-07-21T04:56:02.218Z,21.80
2018-07-21T04:58:29.409Z,21.90
2018-07-21T05:00:56.763Z,21.80
2018-07-21T05:03:23.841Z,21.80
2018-07-21T05:05:50.951Z,21.60
2018-07-21T05:08:18.084Z,21.40
2018-07-21T05:10:45.196Z,20.90
2018-07-21T05:13:12.307Z,20.80
2018-07-21T05:15:39.432Z,20.80
2018-07-21T05:18:06.570Z,21.00
2018-07-21T05:20:33.734Z,21.00
2018-07-21T05:25:28.183Z,21.30
2018-07-21T05:27:55.358Z,21.40
2018-07-21T05:30:22.513Z,21.50
2018-07-21T05:35:16.801Z,22.10
2018-07-21T05:37:44.054Z,22.10
2018-07-21T05:40:11.161Z,22.10
2018-07-21T05:42:38.261Z,22.00
2018-07-21T05:45:05.617Z,21.80
2018-07-21T05:47:32.713Z,22.00
2018-07-21T05:49:59.915Z,21.70
2018-07-21T05:52:27.104Z,21.70
2018-07-21T05:54:54.273Z,21.70
2018-07-21T05:57:21.458Z,21.70
2018-07-21T05:59:48.706Z,21.50
2018-07-21T06:02:15.827Z,21.50
2018-07-21T06:04:42.961Z,21.40
2018-07-21T06:07:10.091Z,21.50
2018-07-21T06:09:37.223Z,21.50
2018-07-21T06:12:04.368Z,21.60
2018-07-21T06:14:31.529Z,21.50
2018-07-21T06:16:58.815Z,21.50
2018-07-21T06:19:26.049Z,21.50
2018-07-21T06:21:53.199Z,21.60
2018-07-21T06:24:20.313Z,21.60
2018-07-21T06:26:47.453Z,21.60
2018-07-21T06:29:14.602Z,21.50
2018-07-21T06:31:41.794Z,21.50
2018-07-21T06:34:08.939Z,21.30
2018-07-21T06:36:36.091Z,21.20
2018-07-21T06:39:06.477Z,21.00
2018-07-21T06:41:33.811Z,20.80
2018-07-21T06:44:01.248Z,20.90
2018-07-21T06:46:28.421Z,20.90
2018-07-21T06:48:55.743Z,20.90
2018-07-21T06:51:22.885Z,20.90
2018-07-21T06:53:49.997Z,20.90
2018-07-21T06:56:17.147Z,20.90
2018-07-21T06:58:44.258Z,21.00
2018-07-21T07:01:11.385Z,21.20
2018-07-21T07:03:38.784Z,21.50
2018-07-21T07:06:06.021Z,21.80
2018-07-21T07:08:33.223Z,22.00
2018-07-21T07:11:00.407Z,22.30
2018-07-21T07:13:27.575Z,22.60
2018-07-21T07:15:54.788Z,22.90
2018-07-21T07:18:21.944Z,22.90
2018-07-21T07:20:49.097Z,22.90
2018-07-21T07:23:16.245Z,23.10
2018-07-21T07:25:43.385Z,23.20
2018-07-21T07:28:10.509Z,23.30
2018-07-21T07:30:37.621Z,23.30
2018-07-21T07:33:04.815Z,23.50
2018-07-21T07:35:32.136Z,23.50
2018-07-21T07:37:59.451Z,23.80
2018-07-21T07:40:26.797Z,24.20
2018-07-21T07:42:53.904Z,24.50
2018-07-21T07:45:21.025Z,24.20
2018-07-21T07:47:48.154Z,24.40
2018-07-21T07:50:15.297Z,24.60
2018-07-21T07:52:42.401Z,24.70
2018-07-21T07:55:09.550Z,24.50
2018-07-21T07:57:36.692Z,24.60
2018-07-21T08:00:04.251Z,24.40
2018-07-21T08:02:31.547Z,24.20
2018-07-21T08:04:59.124Z,24.20
2018-07-21T08:07:26.404Z,24.00
2018-07-21T08:09:53.516Z,23.70
2018-07-21T08:12:20.840Z,23.70
2018-07-21T08:14:48.105Z,23.60
2018-07-21T08:17:15.374Z,23.60
2018-07-21T08:19:42.481Z,23.60
2018-07-21T08:22:09.653Z,23.50
2018-07-21T08:24:36.990Z,23.30
2018-07-21T08:27:04.502Z,23.20
2018-07-21T08:29:31.706Z,23.20
2018-07-21T08:31:58.886Z,23.20
2018-07-21T08:34:26.106Z,23.30
2018-07-21T08:36:53.509Z,23.30
2018-07-21T08:39:20.634Z,23.30
2018-07-21T08:41:47.758Z,23.50
2018-07-21T08:44:14.902Z,23.70
2018-07-21T08:46:42.055Z,23.90
2018-07-21T08:49:09.193Z,24.20
2018-07-21T08:51:36.330Z,24.30
2018-07-21T08:54:03.719Z,24.40
2018-07-21T08:56:30.987Z,24.30
2018-07-21T08:58:58.224Z,24.40
2018-07-21T09:01:25.427Z,24.40
2018-07-21T09:03:52.594Z,24.20
2018-07-21T09:06:19.773Z,24.10
2018-07-21T09:08:46.894Z,24.00
2018-07-21T09:11:14.023Z,23.90
2018-07-21T09:13:41.159Z,23.70
2018-07-21T09:16:08.874Z,23.50
2018-07-21T09:18:36.093Z,23.60
2018-07-21T09:21:03.345Z,23.50
2018-07-21T09:23:30.503Z,23.60
2018-07-21T09:25:57.715Z,23.60
2018-07-21T09:28:24.843Z,23.50
2018-07-21T09:30:51.987Z,23.50
2018-07-21T09:33:19.206Z,23.60
2018-07-21T09:35:46.418Z,23.70
2018-07-21T09:38:13.547Z,23.60
2018-07-21T09:40:40.777Z,23.60
2018-07-21T09:43:08.216Z,23.70
2018-07-21T09:45:35.497Z,23.50
2018-07-21T09:48:02.943Z,23.40
2018-07-21T09:50:30.090Z,23.40
2018-07-21T09:52:57.241Z,23.30
2018-07-21T09:55:24.368Z,23.20
2018-07-21T09:57:51.550Z,23.20
2018-07-21T10:01:26.318Z,23.20
2018-07-21T10:03:53.483Z,23.20
2018-07-21T10:06:20.628Z,23.20
2018-07-21T10:08:47.753Z,23.30
2018-07-21T10:11:14.898Z,23.20
2018-07-21T10:13:42.117Z,23.10
2018-07-21T10:16:09.656Z,22.80
2018-07-21T10:18:36.902Z,22.90
2018-07-21T10:21:04.343Z,23.00
2018-07-21T10:23:31.630Z,23.20
2018-07-21T10:26:04.498Z,23.50
2018-07-21T10:28:37.510Z,23.50
2018-07-21T10:31:04.934Z,23.50
2018-07-21T10:33:32.256Z,23.70
2018-07-21T10:35:59.496Z,23.80
2018-07-21T10:38:26.639Z,23.40
2018-07-21T10:40:53.752Z,23.60
2018-07-21T10:43:20.924Z,23.20
2018-07-21T10:45:48.056Z,22.90
2018-07-21T10:48:15.398Z,22.90
2018-07-21T10:50:42.588Z,23.20
2018-07-21T10:53:09.790Z,23.30
2018-07-21T10:55:36.997Z,23.10
2018-07-21T10:58:04.595Z,23.10
2018-07-21T11:00:32.038Z,23.20
2018-07-21T11:02:59.208Z,23.40
2018-07-21T11:05:26.357Z,23.40
2018-07-21T11:07:53.557Z,23.60
2018-07-21T11:10:20.694Z,23.40
2018-07-21T11:12:47.908Z,23.30
2018-07-21T11:15:15.131Z,23.40
2018-07-21T11:17:42.221Z,23.30
2018-07-21T11:20:09.424Z,23.10
2018-07-21T11:22:36.907Z,22.90
2018-07-21T11:25:05.124Z,23.10
2018-07-21T11:27:32.556Z,22.90
2018-07-21T11:29:59.719Z,22.50
2018-07-21T11:32:26.913Z,22.80
2018-07-21T11:34:54.066Z,22.90
2018-07-21T11:37:21.492Z,22.80
2018-07-21T11:39:48.961Z,22.80
2018-07-21T11:42:16.099Z,22.90
2018-07-21T11:44:43.256Z,22.90
2018-07-21T11:49:38.040Z,23.10
2018-07-21T11:52:05.391Z,23.20
2018-07-21T11:54:32.896Z,23.30
2018-07-21T11:57:00.967Z,23.40
2018-07-21T11:59:28.832Z,23.50
2018-07-21T12:01:56.462Z,23.60
2018-07-21T12:04:24.182Z,23.50
2018-07-21T12:06:51.746Z,23.60
2018-07-21T12:09:18.909Z,23.60
2018-07-21T12:11:46.061Z,23.60
2018-07-21T12:14:13.214Z,23.60
2018-07-21T12:19:07.622Z,23.60
2018-07-21T12:26:29.658Z,23.90
2018-07-21T12:28:56.817Z,24.00
2018-07-21T12:31:24.206Z,24.00
2018-07-21T12:33:51.371Z,23.90
2018-07-21T12:36:18.517Z,23.80
2018-07-21T12:38:45.700Z,23.80
2018-07-21T12:41:12.974Z,23.80
2018-07-21T12:43:40.246Z,23.70
2018-07-21T12:46:07.414Z,23.70
2018-07-21T12:48:34.601Z,23.40
2018-07-21T12:51:02.031Z,23.50
2018-07-21T12:53:29.182Z,23.30
2018-07-21T12:55:56.302Z,23.20
2018-07-21T12:58:23.442Z,23.30
2018-07-21T13:00:50.605Z,23.00
2018-07-21T13:03:17.756Z,22.90
2018-07-21T13:05:44.861Z,23.20
2018-07-21T13:08:12.006Z,23.40
2018-07-21T13:10:39.295Z,23.30
2018-07-21T13:13:06.566Z,23.60
2018-07-21T13:15:33.764Z,23.40
2018-07-21T13:18:00.921Z,23.40
2018-07-21T13:20:28.046Z,23.40
2018-07-21T13:22:55.170Z,23.20
2018-07-21T13:25:22.366Z,23.50
2018-07-21T13:27:49.498Z,23.80
2018-07-21T13:30:16.624Z,23.60
2018-07-21T13:32:43.749Z,23.60
2018-07-21T13:35:11.052Z,23.60
2018-07-21T13:37:38.499Z,23.50
2018-07-21T13:40:06.654Z,23.60
2018-07-21T13:42:33.998Z,23.90
2018-07-21T13:45:01.173Z,23.80
2018-07-21T13:47:28.285Z,24.00
2018-07-21T13:49:55.790Z,24.00
2018-07-21T13:52:23.043Z,23.80
2018-07-21T13:54:50.603Z,23.60
2018-07-21T13:57:17.785Z,23.70
2018-07-21T13:59:44.922Z,23.70
2018-07-21T14:02:12.082Z,23.60
2018-07-21T14:04:39.230Z,23.90
2018-07-21T14:07:06.582Z,24.10
2018-07-21T14:09:33.837Z,23.90
2018-07-21T14:12:01.033Z,23.60
2018-07-21T14:14:28.216Z,23.60
2018-07-21T14:16:55.450Z,23.80
2018-07-21T14:19:22.557Z,23.80
2018-07-21T14:21:49.667Z,23.70
2018-07-21T14:24:16.806Z,23.50
2018-07-21T14:26:43.937Z,23.40
2018-07-21T14:29:11.062Z,23.50
2018-07-21T14:31:38.522Z,23.40
2018-07-21T14:34:05.742Z,23.60
2018-07-21T14:36:33.158Z,23.60
2018-07-21T14:39:00.170Z,23.60
2018-07-21T14:41:27.323Z,23.70
2018-07-21T14:43:54.508Z,23.60
2018-07-21T14:46:21.752Z,23.70
2018-07-21T14:48:48.890Z,23.70
2018-07-21T14:51:16.041Z,23.80
2018-07-21T14:53:43.234Z,23.80
2018-07-21T14:56:10.538Z,23.90
2018-07-21T14:58:37.720Z,24.00
2018-07-21T15:01:04.962Z,24.10
2018-07-21T15:03:32.168Z,24.00
2018-07-21T15:08:41.286Z,24.60
2018-07-21T15:11:08.401Z,24.80
2018-07-21T15:13:35.585Z,24.60
2018-07-21T15:16:02.710Z,24.80
2018-07-21T15:18:29.831Z,24.90
2018-07-21T15:20:56.934Z,25.00
2018-07-21T15:23:24.075Z,25.00
2018-07-21T15:25:51.340Z,24.80
2018-07-21T15:28:18.514Z,25.10
2018-07-21T15:30:45.626Z,25.30
2018-07-21T15:33:12.948Z,25.30
2018-07-21T15:35:40.080Z,25.20
2018-07-21T15:38:07.758Z,25.40
2018-07-21T15:40:34.918Z,25.60
2018-07-21T15:43:02.066Z,25.80
2018-07-21T15:45:29.247Z,25.90
2018-07-21T15:47:56.348Z,25.90
2018-07-21T15:50:23.480Z,25.80
2018-07-21T15:52:50.606Z,25.70
2018-07-21T15:55:17.743Z,25.90
2018-07-21T15:57:44.875Z,26.00
2018-07-21T16:00:11.993Z,26.20
2018-07-21T16:02:39.126Z,26.20
2018-07-21T16:05:06.282Z,26.10
2018-07-21T16:07:33.555Z,25.70
2018-07-21T16:10:00.672Z,25.70
2018-07-21T16:12:27.790Z,25.20
2018-07-21T16:14:54.949Z,24.70
2018-07-21T16:17:22.017Z,24.90
2018-07-21T16:19:49.146Z,25.00
2018-07-21T16:22:16.420Z,25.00
2018-07-21T16:24:43.655Z,25.00
2018-07-21T16:27:10.769Z,25.00
2018-07-21T16:29:37.871Z,24.90
2018-07-21T16:32:05.126Z,24.90
2018-07-21T16:36:59.690Z,24.80
2018-07-21T16:39:26.794Z,24.80
2018-07-21T16:41:53.905Z,24.70
2018-07-21T16:44:21.007Z,24.60
2018-07-21T16:46:48.207Z,24.60
2018-07-21T16:49:15.314Z,24.50
2018-07-21T16:51:42.445Z,24.40
2018-07-21T16:54:09.569Z,24.40
2018-07-21T16:56:36.698Z,24.40
2018-07-21T16:59:04.026Z,24.30
2018-07-21T17:01:31.178Z,24.30
2018-07-21T17:03:58.305Z,24.20
2018-07-21T17:06:25.434Z,24.10
2018-07-21T17:08:52.553Z,24.10
2018-07-21T17:11:19.669Z,24.10
2018-07-21T17:13:46.810Z,24.20
2018-07-21T17:16:13.933Z,24.00
2018-07-21T17:18:41.097Z,24.10
2018-07-21T17:21:08.193Z,24.20
2018-07-21T17:23:35.610Z,24.20
2018-07-21T17:26:02.781Z,24.10
2018-07-21T17:28:29.905Z,24.10
2018-07-21T17:30:57.066Z,24.00
2018-07-21T17:33:24.193Z,24.10
2018-07-21T17:35:51.518Z,24.10
2018-07-21T17:38:18.640Z,24.00
2018-07-21T17:40:45.763Z,23.90
2018-07-21T17:43:12.874Z,23.90
2018-07-21T17:45:39.974Z,23.90
2018-07-21T17:48:07.114Z,23.70
2018-07-21T17:50:34.329Z,23.70
2018-07-21T17:53:01.465Z,23.60
2018-07-21T17:55:28.616Z,23.60
2018-07-21T17:57:55.741Z,23.40
2018-07-21T18:00:22.888Z,23.30
2018-07-21T18:02:50.045Z,23.20
2018-07-21T18:05:17.170Z,23.20
2018-07-21T18:07:44.342Z,23.20
2018-07-21T18:10:11.441Z,23.20
2018-07-21T18:12:38.755Z,23.10
2018-07-21T18:15:05.897Z,23.00
2018-07-21T18:17:33.077Z,22.90
2018-07-21T18:20:00.201Z,22.80
2018-07-21T18:22:27.317Z,22.70
2018-07-21T18:24:54.430Z,22.60
2018-07-21T18:27:21.544Z,22.50
2018-07-21T18:29:48.657Z,22.40
2018-07-21T18:34:42.900Z,22.30
2018-07-21T18:37:10.170Z,22.20
2018-07-21T18:39:37.325Z,22.20
2018-07-21T18:42:04.475Z,22.10
2018-07-21T18:44:31.652Z,22.10
2018-07-21T18:46:59.223Z,21.90
2018-07-21T18:49:26.350Z,21.80
2018-07-21T18:51:53.465Z,21.70
2018-07-21T18:54:20.610Z,21.70
2018-07-21T18:56:47.758Z,21.70
2018-07-21T18:59:14.986Z,21.50
2018-07-21T19:01:42.108Z,21.50
2018-07-21T19:04:09.223Z,21.50
2018-07-21T19:06:36.355Z,21.40
2018-07-21T19:09:06.259Z,21.30
2018-07-21T19:11:33.434Z,21.10
2018-07-21T19:14:00.541Z,21.00
2018-07-21T19:16:40.094Z,20.90
2018-07-21T19:19:07.530Z,20.90
2018-07-21T19:21:34.740Z,20.80
2018-07-21T19:24:01.870Z,20.60
2018-07-21T19:26:34.862Z,20.50
2018-07-21T19:29:02.002Z,20.40
2018-07-21T19:31:29.129Z,20.30
2018-07-21T19:33:56.284Z,20.30
2018-07-21T19:36:23.429Z,20.30
2018-07-21T19:38:50.666Z,20.20
2018-07-21T19:41:23.476Z,20.20
2018-07-21T19:43:50.652Z,20.10
2018-07-21T19:46:17.888Z,20.10
2018-07-21T19:48:45.015Z,20.00
2018-07-21T19:51:12.149Z,20.00
2018-07-21T19:53:39.261Z,19.90
2018-07-21T19:56:06.401Z,19.90
2018-07-21T19:58:33.822Z,19.80
2018-07-21T20:01:00.982Z,19.90
2018-07-21T20:03:28.454Z,19.80
2018-07-21T20:05:55.652Z,19.80
2018-07-21T20:08:22.805Z,19.70
2018-07-21T20:10:49.920Z,19.60
2018-07-21T20:13:17.063Z,19.50
2018-07-21T20:15:44.175Z,19.40
2018-07-21T20:18:11.273Z,19.50
2018-07-21T20:20:38.805Z,19.50
2018-07-21T20:23:05.993Z,19.40
2018-07-21T20:25:33.658Z,19.40
2018-07-21T20:28:00.783Z,19.40
2018-07-21T20:30:27.960Z,19.40
2018-07-21T20:32:55.098Z,19.50
2018-07-21T20:35:22.190Z,19.60
2018-07-21T20:37:49.311Z,19.60
2018-07-21T20:40:16.438Z,19.70
2018-07-21T20:42:43.587Z,19.60
2018-07-21T20:45:10.750Z,19.70
2018-07-21T20:47:37.878Z,19.70
2018-07-21T20:50:05.077Z,19.60
2018-07-21T20:52:32.214Z,19.50
2018-07-21T20:54:59.359Z,19.60
2018-07-21T20:57:26.486Z,19.60
2018-07-21T20:59:53.595Z,19.60
2018-07-21T21:02:20.721Z,19.50
2018-07-21T21:04:47.855Z,19.50
2018-07-21T21:07:14.977Z,19.50
2018-07-21T21:09:42.109Z,19.70
2018-07-21T21:12:09.258Z,19.70
2018-07-21T21:14:36.437Z,19.70
2018-07-21T21:17:04.046Z,19.70
2018-07-21T21:19:31.305Z,19.80
2018-07-21T21:21:58.425Z,19.70
2018-07-21T21:24:25.523Z,19.60
2018-07-21T21:26:52.881Z,19.60
2018-07-21T21:29:20.007Z,19.50
2018-07-21T21:31:47.141Z,19.40
2018-07-21T21:34:14.260Z,19.40
2018-07-21T21:36:41.363Z,19.40
2018-07-21T21:39:10.443Z,19.40
2018-07-21T21:41:37.811Z,19.40
2018-07-21T21:44:05.634Z,19.40
2018-07-21T21:46:33.043Z,19.30
2018-07-21T21:49:00.179Z,19.30
2018-07-21T21:51:27.322Z,19.30
2018-07-21T21:53:54.743Z,19.10
2018-07-21T21:56:21.900Z,19.30
2018-07-21T21:58:49.157Z,19.30
2018-07-21T22:01:16.321Z,19.20
2018-07-21T22:03:44.010Z,19.20
2018-07-21T22:06:11.125Z,19.20
2018-07-21T22:08:38.384Z,19.20
2018-07-21T22:11:05.738Z,19.30
2018-07-21T22:13:32.971Z,19.30
2018-07-21T22:16:00.456Z,19.30
2018-07-21T22:18:28.522Z,19.30
2018-07-21T22:20:55.666Z,19.30
2018-07-21T22:25:49.978Z,19.20
2018-07-21T22:28:17.085Z,19.00
2018-07-21T22:30:44.217Z,19.00
2018-07-21T22:33:11.371Z,18.80
2018-07-21T22:35:38.498Z,18.90
2018-07-21T22:38:05.721Z,18.90
2018-07-21T22:40:32.931Z,18.80
2018-07-21T22:43:00.055Z,18.80
2018-07-21T22:45:27.536Z,18.70
2018-07-21T22:47:54.815Z,18.70
2018-07-21T22:50:22.189Z,18.60
2018-07-21T22:52:49.413Z,18.60
2018-07-21T22:55:16.539Z,18.60
2018-07-21T22:57:43.658Z,18.50
2018-07-21T23:00:10.990Z,18.40
2018-07-21T23:02:38.626Z,18.30
2018-07-21T23:05:05.983Z,18.20
2018-07-21T23:07:33.325Z,18.00
2018-07-21T23:10:00.631Z,18.10
2018-07-21T23:12:27.779Z,18.00
2018-07-21T23:14:54.942Z,18.00
2018-07-21T23:17:22.084Z,18.00
2018-07-21T23:19:49.216Z,17.90
2018-07-21T23:22:16.409Z,17.90
2018-07-21T23:24:43.666Z,17.80
2018-07-21T23:27:11.862Z,17.80
2018-07-21T23:29:39.028Z,17.80
2018-07-21T23:32:06.280Z,18.10
2018-07-21T23:34:33.558Z,18.10
2018-07-21T23:37:00.707Z,18.10
2018-07-21T23:39:27.841Z,18.10
2018-07-21T23:41:54.946Z,18.10
2018-07-21T23:44:22.102Z,18.00
2018-07-21T23:46:49.233Z,18.20
2018-07-21T23:51:43.574Z,18.00
2018-07-21T23:54:10.720Z,17.90
2018-07-21T23:56:38.137Z,17.80
2018-07-21T23:59:05.847Z,17.70
